Tommy Belle — ZGGD4 — position and weather

sailwx.info

Track history (hours):
 
Tides and Currents Weather Stations Pressure Air Temp Water Temp Dewpoint Dewpoint Depression Visibility Wind Speed Wind Dir Waves Ship Positions

Tommy Belle

Last reported at 2018-Jun-17 17:44 UTC. Time now 2018-Jun-18 05:33 UTC.
Position N 43°35' E 007°07'.

Length 35 m; draft 3.7 m.

Type: Pleasure craft. MMSI: 319107500.

Date/timePositionNaut miles runAvg speedWind from/ knotsBaromVisibWave heightAir tempDewpointWater temp
2018-Jun-17 17:44N 43°35' E 007°07'0 0.0
2018-Jun-17 17:14N 43°35' E 007°07'0 0.0
2018-Jun-17 16:56N 43°35' E 007°07'0 0.0
2018-Jun-17 16:26N 43°35' E 007°07'0 0.0
2018-Jun-17 14:56N 43°35' E 007°07'0 0.0
2018-Jun-16 15:08N 43°35' E 007°07'0 0.0
2018-Jun-16 14:56N 43°35' E 007°07'0 0.0
2018-Jun-15 13:02N 43°35' E 007°07'0 0.0
2018-Jun-15 12:56N 43°35' E 007°07'0 0.0
2018-Jun-15 12:26N 43°35' E 007°07'1 0.0
2018-Jun-14 18:13N 43°35' E 007°08'2 9.7
2018-Jun-14 18:00N 43°33' E 007°09'4 8.5
2018-Jun-14 17:30N 43°31' E 007°04'0 0.0
2018-Jun-14 17:00N 43°31' E 007°04'0 0.0
2018-Jun-14 16:30N 43°31' E 007°04'0 0.0
2018-Jun-14 16:00N 43°31' E 007°04'0 0.0
2018-Jun-14 15:30N 43°31' E 007°04'0 0.0
2018-Jun-14 15:00N 43°31' E 007°04'0 0.0
2018-Jun-14 14:30N 43°31' E 007°04'0 0.0
2018-Jun-14 14:00N 43°31' E 007°04'0 0.0
2018-Jun-14 13:30N 43°31' E 007°04'0 0.0
2018-Jun-14 13:00N 43°31' E 007°04'0 0.0
2018-Jun-14 12:30N 43°31' E 007°04'0 0.0
2018-Jun-14 12:00N 43°31' E 007°04'0 0.0
2018-Jun-14 11:27N 43°31' E 007°04'5 5.8
2018-Jun-14 10:34N 43°35' E 007°08'  
Track history (hours):
 
Tides and Currents Weather Stations Pressure Air Temp Water Temp Dewpoint Dewpoint Depression Visibility Wind Speed Wind Dir Waves Ship Positions

Tommy Belle

Last reported at 2018-Jun-17 17:44 UTC. Time now 2018-Jun-18 05:33 UTC.
Position N 43°35' E 007°07'.

Length 35 m; draft 3.7 m.

Type: Pleasure craft. MMSI: 319107500.

Date/timePositionNaut miles runAvg speedWind from/ knotsBaromVisibWave heightAir tempDewpointWater temp
2018-Jun-17 17:44N 43°35' E 007°07'0 0.0
2018-Jun-17 17:14N 43°35' E 007°07'0 0.0
2018-Jun-17 16:56N 43°35' E 007°07'0 0.0
2018-Jun-17 16:26N 43°35' E 007°07'0 0.0
2018-Jun-17 14:56N 43°35' E 007°07'0 0.0
2018-Jun-16 15:08N 43°35' E 007°07'0 0.0
2018-Jun-16 14:56N 43°35' E 007°07'0 0.0
2018-Jun-15 13:02N 43°35' E 007°07'0 0.0
2018-Jun-15 12:56N 43°35' E 007°07'0 0.0
2018-Jun-15 12:26N 43°35' E 007°07'1 0.0
2018-Jun-14 18:13N 43°35' E 007°08'2 9.7
2018-Jun-14 18:00N 43°33' E 007°09'4 8.5
2018-Jun-14 17:30N 43°31' E 007°04'0 0.0
2018-Jun-14 17:00N 43°31' E 007°04'0 0.0
2018-Jun-14 16:30N 43°31' E 007°04'0 0.0
2018-Jun-14 16:00N 43°31' E 007°04'0 0.0
2018-Jun-14 15:30N 43°31' E 007°04'0 0.0
2018-Jun-14 15:00N 43°31' E 007°04'0 0.0
2018-Jun-14 14:30N 43°31' E 007°04'0 0.0
2018-Jun-14 14:00N 43°31' E 007°04'0 0.0
2018-Jun-14 13:30N 43°31' E 007°04'0 0.0
2018-Jun-14 13:00N 43°31' E 007°04'0 0.0
2018-Jun-14 12:30N 43°31' E 007°04'0 0.0
2018-Jun-14 12:00N 43°31' E 007°04'0 0.0
2018-Jun-14 11:27N 43°31' E 007°04'5 5.8
2018-Jun-14 10:34N 43°35' E 007°08'  

Dump ship's entire track history